sensor_id;sensor_type;location;lat;lon;timestamp;pressure;altitude;pressure_sealevel;temperature;humidity
48630;BME280;34426;52.180;4.462;2023-02-19T00:01:59;101906.94;;;8.83;92.97
48630;BME280;34426;52.180;4.462;2023-02-19T00:04:26;101906.72;;;8.84;93.14
48630;BME280;34426;52.180;4.462;2023-02-19T00:06:54;101907.81;;;8.83;93.51
48630;BME280;34426;52.180;4.462;2023-02-19T00:09:24;101903.53;;;8.81;92.89
48630;BME280;34426;52.180;4.462;2023-02-19T00:11:52;101900.13;;;8.79;93.14
48630;BME280;34426;52.180;4.462;2023-02-19T00:14:20;101905.69;;;8.79;92.79
48630;BME280;34426;52.180;4.462;2023-02-19T00:16:48;101898.41;;;8.78;92.14
48630;BME280;34426;52.180;4.462;2023-02-19T00:19:17;101898.41;;;8.78;92.53
48630;BME280;34426;52.180;4.462;2023-02-19T00:21:45;101909.56;;;8.78;92.04
48630;BME280;34426;52.180;4.462;2023-02-19T00:24:13;101916.25;;;8.77;92.25
48630;BME280;34426;52.180;4.462;2023-02-19T00:26:43;101915.16;;;8.78;92.56
48630;BME280;34426;52.180;4.462;2023-02-19T00:29:13;101913.00;;;8.80;92.57
48630;BME280;34426;52.180;4.462;2023-02-19T00:31:41;101922.44;;;8.79;91.84
48630;BME280;34426;52.180;4.462;2023-02-19T00:34:09;101924.16;;;8.80;92.37
48630;BME280;34426;52.180;4.462;2023-02-19T00:36:38;101920.28;;;8.81;92.02
48630;BME280;34426;52.180;4.462;2023-02-19T00:39:07;101933.38;;;8.80;92.12
48630;BME280;34426;52.180;4.462;2023-02-19T00:41:34;101933.59;;;8.79;92.95
48630;BME280;34426;52.180;4.462;2023-02-19T00:44:04;101938.56;;;8.77;92.53
48630;BME280;34426;52.180;4.462;2023-02-19T00:46:33;101934.28;;;8.74;92.81
48630;BME280;34426;52.180;4.462;2023-02-19T00:49:02;101939.25;;;8.72;92.37
48630;BME280;34426;52.180;4.462;2023-02-19T00:51:31;101936.69;;;8.71;92.76
48630;BME280;34426;52.180;4.462;2023-02-19T00:54:00;101938.84;;;8.68;93.34
48630;BME280;34426;52.180;4.462;2023-02-19T00:56:27;101938.84;;;8.68;92.68
48630;BME280;34426;52.180;4.462;2023-02-19T00:58:55;101946.59;;;8.66;93.12
48630;BME280;34426;52.180;4.462;2023-02-19T01:01:25;101946.59;;;8.66;92.92
48630;BME280;34426;52.180;4.462;2023-02-19T01:03:52;101940.41;;;8.64;92.92
48630;BME280;34426;52.180;4.462;2023-02-19T01:06:20;101943.19;;;8.64;93.05
48630;BME280;34426;52.180;4.462;2023-02-19T01:08:48;101936.13;;;8.62;92.39
48630;BME280;34426;52.180;4.462;2023-02-19T01:11:16;101944.28;;;8.63;93.05
48630;BME280;34426;52.180;4.462;2023-02-19T01:13:43;101943.19;;;8.64;92.68
48630;BME280;34426;52.180;4.462;2023-02-19T01:16:13;101944.91;;;8.65;92.21
48630;BME280;34426;52.180;4.462;2023-02-19T01:18:43;101949.38;;;8.66;91.88
48630;BME280;34426;52.180;4.462;2023-02-19T01:21:13;101949.63;;;8.65;91.87
48630;BME280;34426;52.180;4.462;2023-02-19T01:23:41;101952.56;;;8.70;92.38
48630;BME280;34426;52.180;4.462;2023-02-19T01:26:10;101960.69;;;8.72;92.37
48630;BME280;34426;52.180;4.462;2023-02-19T01:28:38;101958.13;;;8.70;93.37
48630;BME280;34426;52.180;4.462;2023-02-19T01:31:07;101956.66;;;8.67;93.75
48630;BME280;34426;52.180;4.462;2023-02-19T01:33:34;101958.22;;;8.63;93.83
48630;BME280;34426;52.180;4.462;2023-02-19T01:36:05;101955.66;;;8.62;94.10
48630;BME280;34426;52.180;4.462;2023-02-19T01:38:33;101962.53;;;8.59;94.08
48630;BME280;34426;52.180;4.462;2023-02-19T01:41:02;101955.03;;;8.60;94.27
48630;BME280;34426;52.180;4.462;2023-02-19T01:43:31;101959.13;;;8.57;94.64
48630;BME280;34426;52.180;4.462;2023-02-19T01:45:59;101964.09;;;8.55;94.45
48630;BME280;34426;52.180;4.462;2023-02-19T01:48:28;101967.31;;;8.52;95.00
48630;BME280;34426;52.180;4.462;2023-02-19T01:50:59;101962.19;;;8.49;94.71
48630;BME280;34426;52.180;4.462;2023-02-19T01:53:33;101971.66;;;8.48;94.55
48630;BME280;34426;52.180;4.462;2023-02-19T01:56:03;101966.91;;;8.49;95.06
48630;BME280;34426;52.180;4.462;2023-02-19T01:58:32;101973.41;;;8.43;94.64
48630;BME280;34426;52.180;4.462;2023-02-19T02:01:02;101970.22;;;8.39;94.73
48630;BME280;34426;52.180;4.462;2023-02-19T02:03:30;101983.53;;;8.37;95.55
48630;BME280;34426;52.180;4.462;2023-02-19T02:06:01;101983.31;;;8.32;94.85
48630;BME280;34426;52.180;4.462;2023-02-19T02:08:34;101983.31;;;8.32;95.53
48630;BME280;34426;52.180;4.462;2023-02-19T02:11:02;101984.19;;;8.32;95.18
48630;BME280;34426;52.180;4.462;2023-02-19T02:13:30;101975.59;;;8.34;95.10
48630;BME280;34426;52.180;4.462;2023-02-19T02:16:07;101984.19;;;8.32;95.38
48630;BME280;34426;52.180;4.462;2023-02-19T02:19:00;101982.44;;;8.31;95.62
48630;BME280;34426;52.180;4.462;2023-02-19T02:21:52;101982.03;;;8.34;95.55
48630;BME280;34426;52.180;4.462;2023-02-19T02:24:27;101976.69;;;8.33;94.90
48630;BME280;34426;52.180;4.462;2023-02-19T02:27:12;101983.97;;;8.34;94.90
48630;BME280;34426;52.180;4.462;2023-02-19T02:30:30;101983.31;;;8.32;95.48
48630;BME280;34426;52.180;4.462;2023-02-19T02:33:03;101986.75;;;8.34;95.76
48630;BME280;34426;52.180;4.462;2023-02-19T02:35:37;101996.38;;;8.38;95.77
48630;BME280;34426;52.180;4.462;2023-02-19T02:38:07;101983.28;;;8.39;95.70
48630;BME280;34426;52.180;4.462;2023-02-19T02:40:38;101968.06;;;8.41;95.53
48630;BME280;34426;52.180;4.462;2023-02-19T02:43:06;101977.28;;;8.42;95.59
48630;BME280;34426;52.180;4.462;2023-02-19T02:45:37;101975.34;;;8.42;95.00
48630;BME280;34426;52.180;4.462;2023-02-19T02:48:13;101976.41;;;8.41;94.88
48630;BME280;34426;52.180;4.462;2023-02-19T02:50:46;101990.97;;;8.43;94.14
48630;BME280;34426;52.180;4.462;2023-02-19T02:53:18;101994.84;;;8.42;94.84
48630;BME280;34426;52.180;4.462;2023-02-19T02:55:50;101992.06;;;8.42;94.21
48630;BME280;34426;52.180;4.462;2023-02-19T02:58:18;101992.06;;;8.42;94.87
48630;BME280;34426;52.180;4.462;2023-02-19T03:00:52;101998.72;;;8.41;94.52
48630;BME280;34426;52.180;4.462;2023-02-19T03:03:22;102002.59;;;8.40;95.30
48630;BME280;34426;52.180;4.462;2023-02-19T03:05:54;102010.94;;;8.40;95.29
48630;BME280;34426;52.180;4.462;2023-02-19T03:08:24;102013.34;;;8.37;95.81
48630;BME280;34426;52.180;4.462;2023-02-19T03:10:56;102030.91;;;8.37;95.36
48630;BME280;34426;52.180;4.462;2023-02-19T03:13:28;102015.03;;;8.38;95.72
48630;BME280;34426;52.180;4.462;2023-02-19T03:16:00;102023.63;;;8.36;96.16
48630;BME280;34426;52.180;4.462;2023-02-19T03:18:32;102019.75;;;8.37;95.63
48630;BME280;34426;52.180;4.462;2023-02-19T03:21:01;102018.06;;;8.36;95.79
48630;BME280;34426;52.180;4.462;2023-02-19T03:23:31;102019.75;;;8.37;95.10
48630;BME280;34426;52.180;4.462;2023-02-19T03:25:59;102019.75;;;8.37;95.49
48630;BME280;34426;52.180;4.462;2023-02-19T03:28:28;102021.47;;;8.38;95.53
48630;BME280;34426;52.180;4.462;2023-02-19T03:31:00;102018.06;;;8.36;95.42
48630;BME280;34426;52.180;4.462;2023-02-19T03:33:29;102040.13;;;8.38;95.69
48630;BME280;34426;52.180;4.462;2023-02-19T03:35:58;102038.19;;;8.38;95.15
48630;BME280;34426;52.180;4.462;2023-02-19T03:38:30;102037.13;;;8.39;95.20
48630;BME280;34426;52.180;4.462;2023-02-19T03:41:08;102040.97;;;8.38;95.63
48630;BME280;34426;52.180;4.462;2023-02-19T03:43:39;102043.78;;;8.38;95.29
48630;BME280;34426;52.180;4.462;2023-02-19T03:46:12;102048.09;;;8.34;96.03
48630;BME280;34426;52.180;4.462;2023-02-19T03:48:47;102036.50;;;8.30;95.13
48630;BME280;34426;52.180;4.462;2023-02-19T03:51:29;102050.66;;;8.29;95.33
48630;BME280;34426;52.180;4.462;2023-02-19T03:54:09;102045.53;;;8.26;95.29
48630;BME280;34426;52.180;4.462;2023-02-19T03:56:41;102033.75;;;8.24;95.74
48630;BME280;34426;52.180;4.462;2023-02-19T03:59:12;102046.00;;;8.23;95.45
48630;BME280;34426;52.180;4.462;2023-02-19T04:01:47;102053.72;;;8.21;95.76
48630;BME280;34426;52.180;4.462;2023-02-19T04:04:18;102048.16;;;8.21;96.11
48630;BME280;34426;52.180;4.462;2023-02-19T04:06:49;102055.44;;;8.22;95.04
48630;BME280;34426;52.180;4.462;2023-02-19T04:09:20;102055.19;;;8.23;95.21
48630;BME280;34426;52.180;4.462;2023-02-19T04:11:48;102043.81;;;8.25;95.69
48630;BME280;34426;52.180;4.462;2023-02-19T04:14:18;102054.97;;;8.25;95.71
48630;BME280;34426;52.180;4.462;2023-02-19T04:16:52;102060.09;;;8.28;94.97
48630;BME280;34426;52.180;4.462;2023-02-19T04:19:22;102057.31;;;8.28;94.86
48630;BME280;34426;52.180;4.462;2023-02-19T04:21:53;102086.25;;;8.27;94.84
48630;BME280;34426;52.180;4.462;2023-02-19T04:24:25;102073.63;;;8.24;94.92
48630;BME280;34426;52.180;4.462;2023-02-19T04:26:54;102077.03;;;8.26;94.87
48630;BME280;34426;52.180;4.462;2023-02-19T04:29:21;102080.03;;;8.25;94.51
48630;BME280;34426;52.180;4.462;2023-02-19T04:31:51;102093.97;;;8.25;95.23
48630;BME280;34426;52.180;4.462;2023-02-19T04:34:18;102101.28;;;8.26;94.95
48630;BME280;34426;52.180;4.462;2023-02-19T04:36:46;102113.28;;;8.26;94.73
48630;BME280;34426;52.180;4.462;2023-02-19T04:39:13;102101.28;;;8.26;94.66
48630;BME280;34426;52.180;4.462;2023-02-19T04:41:40;102114.97;;;8.27;94.97
48630;BME280;34426;52.180;4.462;2023-02-19T04:44:07;102122.72;;;8.25;94.54
48630;BME280;34426;52.180;4.462;2023-02-19T04:46:35;102133.00;;;8.25;93.81
48630;BME280;34426;52.180;4.462;2023-02-19T04:49:04;102121.00;;;8.24;94.21
48630;BME280;34426;52.180;4.462;2023-02-19T04:51:32;102127.44;;;8.25;94.03
48630;BME280;34426;52.180;4.462;2023-02-19T04:53:59;102131.28;;;8.24;94.52
48630;BME280;34426;52.180;4.462;2023-02-19T04:56:26;102128.75;;;8.22;94.21
48630;BME280;34426;52.180;4.462;2023-02-19T04:58:54;102145.47;;;8.22;94.61
48630;BME280;34426;52.180;4.462;2023-02-19T05:01:21;102147.63;;;8.20;94.34
48630;BME280;34426;52.180;4.462;2023-02-19T05:03:49;102156.22;;;8.19;95.05
48630;BME280;34426;52.180;4.462;2023-02-19T05:06:18;102152.34;;;8.20;94.96
48630;BME280;34426;52.180;4.462;2023-02-19T05:08:46;102160.72;;;8.20;94.43
48630;BME280;34426;52.180;4.462;2023-02-19T05:11:13;102146.78;;;8.20;93.94
48630;BME280;34426;52.180;4.462;2023-02-19T05:13:41;102157.94;;;8.20;93.92
48630;BME280;34426;52.180;4.462;2023-02-19T05:16:11;102159.63;;;8.21;94.40
48630;BME280;34426;52.180;4.462;2023-02-19T05:18:39;102179.78;;;8.23;94.12
48630;BME280;34426;52.180;4.462;2023-02-19T05:21:06;102175.28;;;8.22;94.22
48630;BME280;34426;52.180;4.462;2023-02-19T05:23:36;102170.56;;;8.22;94.13
48630;BME280;34426;52.180;4.462;2023-02-19T05:26:05;102180.84;;;8.22;93.58
48630;BME280;34426;52.180;4.462;2023-02-19T05:28:32;102177.22;;;8.21;93.59
48630;BME280;34426;52.180;4.462;2023-02-19T05:31:04;102166.06;;;8.21;93.91
48630;BME280;34426;52.180;4.462;2023-02-19T05:33:31;102166.06;;;8.21;93.32
48630;BME280;34426;52.180;4.462;2023-02-19T05:35:58;102163.50;;;8.20;94.11
48630;BME280;34426;52.180;4.462;2023-02-19T05:38:26;102158.38;;;8.17;94.46
48630;BME280;34426;52.180;4.462;2023-02-19T05:40:55;102165.00;;;8.16;94.54
48630;BME280;34426;52.180;4.462;2023-02-19T05:43:22;102169.09;;;8.13;94.52
48630;BME280;34426;52.180;4.462;2023-02-19T05:45:50;102166.75;;;8.10;94.77
48630;BME280;34426;52.180;4.462;2023-02-19T05:48:17;102176.41;;;8.08;94.93
48630;BME280;34426;52.180;4.462;2023-02-19T05:50:44;102169.09;;;8.07;94.90
48630;BME280;34426;52.180;4.462;2023-02-19T05:53:11;102175.31;;;8.09;95.38
48630;BME280;34426;52.180;4.462;2023-02-19T05:55:39;102180.25;;;8.07;95.86
48630;BME280;34426;52.180;4.462;2023-02-19T05:58:08;102181.34;;;8.06;95.83
48630;BME280;34426;52.180;4.462;2023-02-19T06:00:35;102190.53;;;8.06;95.04
48630;BME280;34426;52.180;4.462;2023-02-19T06:03:03;102196.13;;;8.06;95.64
48630;BME280;34426;52.180;4.462;2023-02-19T06:05:30;102204.47;;;8.06;95.63
48630;BME280;34426;52.180;4.462;2023-02-19T06:07:57;102200.19;;;8.04;94.91
48630;BME280;34426;52.180;4.462;2023-02-19T06:10:25;102198.06;;;8.06;94.79
48630;BME280;34426;52.180;4.462;2023-02-19T06:12:52;102196.56;;;8.03;94.82
48630;BME280;34426;52.180;4.462;2023-02-19T06:15:22;102207.25;;;8.06;94.84
48630;BME280;34426;52.180;4.462;2023-02-19T06:17:49;102211.97;;;8.06;94.89
48630;BME280;34426;52.180;4.462;2023-02-19T06:20:16;102219.28;;;8.07;94.20
48630;BME280;34426;52.180;4.462;2023-02-19T06:22:44;102214.13;;;8.04;94.68
48630;BME280;34426;52.180;4.462;2023-02-19T06:25:11;102215.84;;;8.05;94.83
48630;BME280;34426;52.180;4.462;2023-02-19T06:27:38;102227.00;;;8.05;94.60
48630;BME280;34426;52.180;4.462;2023-02-19T06:30:06;102218.84;;;8.03;94.45
48630;BME280;34426;52.180;4.462;2023-02-19T06:32:36;102224.63;;;8.01;94.97
48630;BME280;34426;52.180;4.462;2023-02-19T06:35:04;102222.69;;;8.02;95.30
48630;BME280;34426;52.180;4.462;2023-02-19T06:37:31;102225.06;;;7.98;94.90
48630;BME280;34426;52.180;4.462;2023-02-19T06:39:59;102232.34;;;7.99;95.05
48630;BME280;34426;52.180;4.462;2023-02-19T06:42:26;102231.28;;;8.00;95.03
48630;BME280;34426;52.180;4.462;2023-02-19T06:44:53;102235.78;;;8.01;95.35
48630;BME280;34426;52.180;4.462;2023-02-19T06:47:21;102239.63;;;8.00;95.15
48630;BME280;34426;52.180;4.462;2023-02-19T06:49:50;102241.56;;;8.00;95.16
48630;BME280;34426;52.180;4.462;2023-02-19T06:52:17;102235.56;;;7.96;95.52
48630;BME280;34426;52.180;4.462;2023-02-19T06:54:45;102251.66;;;7.94;95.93
48630;BME280;34426;52.180;4.462;2023-02-19T06:57:12;102251.00;;;7.92;95.74
48630;BME280;34426;52.180;4.462;2023-02-19T06:59:39;102260.22;;;7.93;95.18
48630;BME280;34426;52.180;4.462;2023-02-19T07:02:08;102261.94;;;7.94;95.86
48630;BME280;34426;52.180;4.462;2023-02-19T07:04:36;102274.38;;;7.91;95.17
48630;BME280;34426;52.180;4.462;2023-02-19T07:07:05;102282.72;;;7.91;95.14
48630;BME280;34426;52.180;4.462;2023-02-19T07:09:33;102280.16;;;7.90;95.61
48630;BME280;34426;52.180;4.462;2023-02-19T07:12:00;102293.88;;;7.91;95.74
48630;BME280;34426;52.180;4.462;2023-02-19T07:14:28;102297.72;;;7.90;95.65
48630;BME280;34426;52.180;4.462;2023-02-19T07:16:55;102296.44;;;7.93;95.77
48630;BME280;34426;52.180;4.462;2023-02-19T07:19:23;102301.56;;;7.89;95.25
48630;BME280;34426;52.180;4.462;2023-02-19T07:21:50;102308.88;;;7.90;96.10
48630;BME280;34426;52.180;4.462;2023-02-19T07:24:20;102308.00;;;7.90;96.10
48630;BME280;34426;52.180;4.462;2023-02-19T07:26:47;102306.72;;;7.92;95.50
48630;BME280;34426;52.180;4.462;2023-02-19T07:29:15;102312.28;;;7.92;96.34
48630;BME280;34426;52.180;4.462;2023-02-19T07:31:42;102321.72;;;7.91;95.85
48630;BME280;34426;52.180;4.462;2023-02-19T07:34:09;102340.59;;;7.89;96.14
48630;BME280;34426;52.180;4.462;2023-02-19T07:36:37;102339.28;;;7.92;95.61
48630;BME280;34426;52.180;4.462;2023-02-19T07:39:04;102335.66;;;7.91;95.65
48630;BME280;34426;52.180;4.462;2023-02-19T07:41:33;102338.00;;;7.94;96.21
48630;BME280;34426;52.180;4.462;2023-02-19T07:44:01;102344.00;;;7.91;95.07
48630;BME280;34426;52.180;4.462;2023-02-19T07:46:28;102350.44;;;7.92;95.89
48630;BME280;34426;52.180;4.462;2023-02-19T07:48:55;102355.16;;;7.91;95.62
48630;BME280;34426;52.180;4.462;2023-02-19T07:51:24;102359.00;;;7.90;95.55
48630;BME280;34426;52.180;4.462;2023-02-19T07:53:51;102375.31;;;7.93;95.49
48630;BME280;34426;52.180;4.462;2023-02-19T07:56:19;102383.00;;;7.91;94.91
48630;BME280;34426;52.180;4.462;2023-02-19T07:58:49;102377.44;;;7.91;95.62
48630;BME280;34426;52.180;4.462;2023-02-19T08:01:17;102380.88;;;7.93;95.82
48630;BME280;34426;52.180;4.462;2023-02-19T08:03:45;102380.00;;;7.93;95.48
48630;BME280;34426;52.180;4.462;2023-02-19T08:06:12;102374.44;;;7.93;95.64
48630;BME280;34426;52.180;4.462;2023-02-19T08:08:39;102380.88;;;7.93;95.45
48630;BME280;34426;52.180;4.462;2023-02-19T08:11:06;102381.72;;;7.94;95.39
48630;BME280;34426;52.180;4.462;2023-02-19T08:13:34;102377.88;;;7.95;95.33
48630;BME280;34426;52.180;4.462;2023-02-19T08:16:13;102382.59;;;7.94;95.36
48630;BME280;34426;52.180;4.462;2023-02-19T08:18:40;102377.88;;;7.95;95.48
48630;BME280;34426;52.180;4.462;2023-02-19T08:21:08;102383.88;;;7.98;95.22
48630;BME280;34426;52.180;4.462;2023-02-19T08:23:35;102384.53;;;8.00;94.54
48630;BME280;34426;52.180;4.462;2023-02-19T08:26:03;102391.59;;;7.96;94.80
48630;BME280;34426;52.180;4.462;2023-02-19T08:28:31;102404.66;;;8.02;94.69
48630;BME280;34426;52.180;4.462;2023-02-19T08:31:00;102401.03;;;8.09;94.59
48630;BME280;34426;52.180;4.462;2023-02-19T08:33:30;102414.13;;;8.08;95.05
48630;BME280;34426;52.180;4.462;2023-02-19T08:36:00;102401.69;;;8.11;94.62
48630;BME280;34426;52.180;4.462;2023-02-19T08:38:27;102406.81;;;8.14;94.05
48630;BME280;34426;52.180;4.462;2023-02-19T08:40:54;102396.75;;;8.13;93.83
48630;BME280;34426;52.180;4.462;2023-02-19T08:43:22;102398.03;;;8.17;93.58
48630;BME280;34426;52.180;4.462;2023-02-19T08:45:52;102401.03;;;8.15;93.70
48630;BME280;34426;52.180;4.462;2023-02-19T08:48:19;102396.31;;;8.16;93.90
48630;BME280;34426;52.180;4.462;2023-02-19T08:50:56;102390.97;;;8.21;93.52
48630;BME280;34426;52.180;4.462;2023-02-19T08:53:24;102396.75;;;8.19;93.10
48630;BME280;34426;52.180;4.462;2023-02-19T08:55:52;102398.47;;;8.20;93.23
48630;BME280;34426;52.180;4.462;2023-02-19T08:58:19;102404.44;;;8.24;93.15
48630;BME280;34426;52.180;4.462;2023-02-19T09:00:47;102407.03;;;8.25;92.77
48630;BME280;34426;52.180;4.462;2023-02-19T09:03:14;102421.81;;;8.26;92.76
48630;BME280;34426;52.180;4.462;2023-02-19T09:05:42;102420.75;;;8.27;92.82
48630;BME280;34426;52.180;4.462;2023-02-19T09:08:11;102426.53;;;8.25;92.87
48630;BME280;34426;52.180;4.462;2023-02-19T09:10:39;102427.38;;;8.26;92.54
48630;BME280;34426;52.180;4.462;2023-02-19T09:13:06;102439.63;;;8.25;92.87
48630;BME280;34426;52.180;4.462;2023-02-19T09:15:33;102433.59;;;8.28;92.56
48630;BME280;34426;52.180;4.462;2023-02-19T09:18:01;102433.59;;;8.28;91.67
48630;BME280;34426;52.180;4.462;2023-02-19T09:20:29;102440.25;;;8.27;91.54
48630;BME280;34426;52.180;4.462;2023-02-19T09:22:59;102453.34;;;8.26;91.50
48630;BME280;34426;52.180;4.462;2023-02-19T09:25:28;102468.78;;;8.29;91.54
48630;BME280;34426;52.180;4.462;2023-02-19T09:27:56;102468.34;;;8.32;91.96
48630;BME280;34426;52.180;4.462;2023-02-19T09:30:23;102480.84;;;8.36;91.59
48630;BME280;34426;52.180;4.462;2023-02-19T09:32:50;102479.13;;;8.35;90.92
48630;BME280;34426;52.180;4.462;2023-02-19T09:35:18;102484.22;;;8.31;91.46
48630;BME280;34426;52.180;4.462;2023-02-19T09:37:48;102485.50;;;8.29;90.96
48630;BME280;34426;52.180;4.462;2023-02-19T09:40:15;102484.22;;;8.31;91.05
48630;BME280;34426;52.180;4.462;2023-02-19T09:42:45;102500.56;;;8.34;90.61
48630;BME280;34426;52.180;4.462;2023-02-19T09:45:17;102512.97;;;8.32;90.59
48630;BME280;34426;52.180;4.462;2023-02-19T09:47:47;102513.38;;;8.29;90.53
48630;BME280;34426;52.180;4.462;2023-02-19T09:50:19;102515.31;;;8.28;91.14
48630;BME280;34426;52.180;4.462;2023-02-19T09:52:50;102518.16;;;8.35;90.82
48630;BME280;34426;52.180;4.462;2023-02-19T09:55:24;102521.59;;;8.37;90.62
48630;BME280;34426;52.180;4.462;2023-02-19T09:57:58;102522.88;;;8.41;90.24
48630;BME280;34426;52.180;4.462;2023-02-19T10:00:28;102525.47;;;8.49;90.17
48630;BME280;34426;52.180;4.462;2023-02-19T10:03:01;102519.03;;;8.49;90.20
48630;BME280;34426;52.180;4.462;2023-02-19T10:05:29;102525.69;;;8.54;89.66
48630;BME280;34426;52.180;4.462;2023-02-19T10:07:57;102523.75;;;8.61;89.86
48630;BME280;34426;52.180;4.462;2023-02-19T10:10:28;102528.06;;;8.64;89.79
48630;BME280;34426;52.180;4.462;2023-02-19T10:13:10;102540.06;;;8.64;89.44
48630;BME280;34426;52.180;4.462;2023-02-19T10:15:43;102539.22;;;8.64;90.33
48630;BME280;34426;52.180;4.462;2023-02-19T10:18:11;102535.34;;;8.65;90.29
48630;BME280;34426;52.180;4.462;2023-02-19T10:20:39;102549.50;;;8.63;91.03
48630;BME280;34426;52.180;4.462;2023-02-19T10:23:09;102555.28;;;8.55;90.76
48630;BME280;34426;52.180;4.462;2023-02-19T10:25:38;102560.22;;;8.53;90.69
48630;BME280;34426;52.180;4.462;2023-02-19T10:28:12;102553.34;;;8.49;91.41
48630;BME280;34426;52.180;4.462;2023-02-19T10:30:41;102563.84;;;8.41;91.83
48630;BME280;34426;52.180;4.462;2023-02-19T10:33:10;102569.63;;;8.39;92.66
48630;BME280;34426;52.180;4.462;2023-02-19T10:35:49;102572.13;;;8.27;92.84
48630;BME280;34426;52.180;4.462;2023-02-19T10:38:18;102570.00;;;8.23;92.55
48630;BME280;34426;52.180;4.462;2023-02-19T10:40:47;102570.00;;;8.23;93.38
48630;BME280;34426;52.180;4.462;2023-02-19T10:43:23;102571.28;;;8.20;92.80
48630;BME280;34426;52.180;4.462;2023-02-19T10:45:51;102570.44;;;8.20;93.39
48630;BME280;34426;52.180;4.462;2023-02-19T10:48:23;102565.69;;;8.27;93.34
48630;BME280;34426;52.180;4.462;2023-02-19T10:50:52;102561.41;;;8.31;93.45
48630;BME280;34426;52.180;4.462;2023-02-19T10:53:22;102561.47;;;8.38;93.02
48630;BME280;34426;52.180;4.462;2023-02-19T10:56:05;102567.50;;;8.48;92.76
48630;BME280;34426;52.180;4.462;2023-02-19T10:58:35;102562.34;;;8.51;93.38
48630;BME280;34426;52.180;4.462;2023-02-19T11:01:14;102559.13;;;8.67;93.90
48630;BME280;34426;52.180;4.462;2023-02-19T11:03:40;102568.38;;;8.75;92.82
48630;BME280;34426;52.180;4.462;2023-02-19T11:06:08;102567.53;;;8.87;92.45
48630;BME280;34426;52.180;4.462;2023-02-19T11:08:45;102574.59;;;8.83;90.73
48630;BME280;34426;52.180;4.462;2023-02-19T11:14:04;102578.47;;;9.02;91.17
48630;BME280;34426;52.180;4.462;2023-02-19T11:16:38;102578.25;;;8.90;89.71
48630;BME280;34426;52.180;4.462;2023-02-19T11:19:05;102587.28;;;8.99;91.15
48630;BME280;34426;52.180;4.462;2023-02-19T11:21:44;102591.13;;;8.98;90.15
48630;BME280;34426;52.180;4.462;2023-02-19T11:24:22;102584.69;;;9.04;89.32
48630;BME280;34426;52.180;4.462;2023-02-19T11:26:48;102596.28;;;9.08;87.89
48630;BME280;34426;52.180;4.462;2023-02-19T11:29:19;102600.56;;;9.10;88.35
48630;BME280;34426;52.180;4.462;2023-02-19T11:31:47;102603.81;;;9.00;87.88
48630;BME280;34426;52.180;4.462;2023-02-19T11:34:26;102594.78;;;8.98;88.09
48630;BME280;34426;52.180;4.462;2023-02-19T11:37:08;102592.84;;;8.79;88.39
48630;BME280;34426;52.180;4.462;2023-02-19T11:39:36;102579.13;;;8.91;88.31
48630;BME280;34426;52.180;4.462;2023-02-19T11:42:35;102583.38;;;9.13;88.31
48630;BME280;34426;52.180;4.462;2023-02-19T11:45:18;102588.09;;;9.32;88.64
48630;BME280;34426;52.180;4.462;2023-02-19T11:51:02;102599.69;;;9.43;86.24
48630;BME280;34426;52.180;4.462;2023-02-19T11:53:31;102605.25;;;9.43;86.39
48630;BME280;34426;52.180;4.462;2023-02-19T11:56:09;102606.78;;;9.25;85.03
48630;BME280;34426;52.180;4.462;2023-02-19T11:58:54;102616.44;;;9.29;85.89
48630;BME280;34426;52.180;4.462;2023-02-19T12:01:36;102612.78;;;9.42;85.48
48630;BME280;34426;52.180;4.462;2023-02-19T12:04:30;102616.00;;;9.46;85.45
48630;BME280;34426;52.180;4.462;2023-02-19T12:07:08;102615.13;;;9.52;84.43
48630;BME280;34426;52.180;4.462;2023-02-19T12:09:49;102610.66;;;9.38;82.57
48630;BME280;34426;52.180;4.462;2023-02-19T12:12:30;102605.91;;;9.45;83.26
48630;BME280;34426;52.180;4.462;2023-02-19T12:15:22;102609.94;;;9.62;83.23
48630;BME280;34426;52.180;4.462;2023-02-19T12:20:58;102618.69;;;9.85;79.94
48630;BME280;34426;52.180;4.462;2023-02-19T12:24:00;102632.50;;;9.54;80.23
48630;BME280;34426;52.180;4.462;2023-02-19T12:26:38;102647.38;;;9.48;81.24
48630;BME280;34426;52.180;4.462;2023-02-19T12:29:22;102638.31;;;9.59;81.49
48630;BME280;34426;52.180;4.462;2023-02-19T12:35:06;102629.34;;;9.44;80.73
48630;BME280;34426;52.180;4.462;2023-02-19T12:37:45;102643.00;;;9.72;81.10
48630;BME280;34426;52.180;4.462;2023-02-19T12:40:25;102651.63;;;9.63;80.66
48630;BME280;34426;52.180;4.462;2023-02-19T12:43:05;102652.97;;;9.48;79.46
48630;BME280;34426;52.180;4.462;2023-02-19T12:45:39;102665.16;;;9.53;80.96
48630;BME280;34426;52.180;4.462;2023-02-19T12:48:13;102680.47;;;9.51;79.65
48630;BME280;34426;52.180;4.462;2023-02-19T12:50:45;102682.34;;;9.57;80.00
48630;BME280;34426;52.180;4.462;2023-02-19T12:53:23;102685.19;;;9.44;79.67
48630;BME280;34426;52.180;4.462;2023-02-19T12:55:55;102679.16;;;9.40;79.49
48630;BME280;34426;52.180;4.462;2023-02-19T12:58:28;102689.47;;;9.40;80.12
48630;BME280;34426;52.180;4.462;2023-02-19T13:00:59;102690.34;;;9.47;79.91
48630;BME280;34426;52.180;4.462;2023-02-19T13:03:31;102697.66;;;9.34;79.18
48630;BME280;34426;52.180;4.462;2023-02-19T13:06:06;102691.00;;;9.49;78.87
48630;BME280;34426;52.180;4.462;2023-02-19T13:08:40;102692.44;;;9.71;79.24
48630;BME280;34426;52.180;4.462;2023-02-19T13:11:08;102698.06;;;9.51;77.05
48630;BME280;34426;52.180;4.462;2023-02-19T13:13:40;102700.44;;;9.48;76.57
48630;BME280;34426;52.180;4.462;2023-02-19T13:16:12;102691.19;;;9.34;78.25
48630;BME280;34426;52.180;4.462;2023-02-19T13:18:44;102699.38;;;9.49;76.45
48630;BME280;34426;52.180;4.462;2023-02-19T13:21:16;102703.22;;;9.41;77.50
48630;BME280;34426;52.180;4.462;2023-02-19T13:23:44;102712.88;;;9.58;76.11
48630;BME280;34426;52.180;4.462;2023-02-19T13:26:24;102712.25;;;9.50;76.49
48630;BME280;34426;52.180;4.462;2023-02-19T13:29:03;102711.19;;;9.38;77.91
48630;BME280;34426;52.180;4.462;2023-02-19T13:31:52;102726.00;;;9.31;77.10